sensor_id;sensor_type;location;lat;lon;timestamp;pressure;altitude;pressure_sealevel;temperature;humidity
4326;BME280;58429;49.826;10.880;2023-08-01T00:00:11;97645;;;17.33;83.97
4326;BME280;58429;49.826;10.880;2023-08-01T00:01:11;97644;;;17.32;83.92
4326;BME280;58429;49.826;10.880;2023-08-01T00:02:11;97645;;;17.28;84.35
4326;BME280;58429;49.826;10.880;2023-08-01T00:03:11;97645;;;17.31;84.43
4326;BME280;58429;49.826;10.880;2023-08-01T00:04:11;97642;;;17.26;84.55
4326;BME280;58429;49.826;10.880;2023-08-01T00:05:11;97651;;;17.24;84.5
4326;BME280;58429;49.826;10.880;2023-08-01T00:06:11;97650;;;17.24;84.54
4326;BME280;58429;49.826;10.880;2023-08-01T00:07:11;97646;;;17.18;84.5
4326;BME280;58429;49.826;10.880;2023-08-01T00:08:11;97640;;;17.19;84.56
4326;BME280;58429;49.826;10.880;2023-08-01T00:09:11;97652;;;17.19;84.71
4326;BME280;58429;49.826;10.880;2023-08-01T00:10:11;97646;;;17.18;84.48
4326;BME280;58429;49.826;10.880;2023-08-01T00:11:11;97643;;;17.18;84.43
4326;BME280;58429;49.826;10.880;2023-08-01T00:12:11;97638;;;17.23;84.45
4326;BME280;58429;49.826;10.880;2023-08-01T00:13:11;97636;;;17.23;84.43
4326;BME280;58429;49.826;10.880;2023-08-01T00:14:11;97640;;;17.24;84.37
4326;BME280;58429;49.826;10.880;2023-08-01T00:15:11;97634;;;17.2;84.4
4326;BME280;58429;49.826;10.880;2023-08-01T00:16:11;97635;;;17.2;84.39
4326;BME280;58429;49.826;10.880;2023-08-01T00:17:11;97629;;;17.21;84.5
4326;BME280;58429;49.826;10.880;2023-08-01T00:18:11;97632;;;17.2;84.45
4326;BME280;58429;49.826;10.880;2023-08-01T00:19:11;97630;;;17.25;84.5
4326;BME280;58429;49.826;10.880;2023-08-01T00:20:11;97622;;;17.25;84.43
4326;BME280;58429;49.826;10.880;2023-08-01T00:21:11;97620;;;17.25;84.41
4326;BME280;58429;49.826;10.880;2023-08-01T00:22:11;97630;;;17.22;84.47
4326;BME280;58429;49.826;10.880;2023-08-01T00:23:11;97627;;;17.21;84.77
4326;BME280;58429;49.826;10.880;2023-08-01T00:24:11;97622;;;17.18;84.8
4326;BME280;58429;49.826;10.880;2023-08-01T00:25:11;97627;;;17.16;84.87
4326;BME280;58429;49.826;10.880;2023-08-01T00:26:11;97622;;;17.14;84.89
4326;BME280;58429;49.826;10.880;2023-08-01T00:27:11;97623;;;17.12;84.85
4326;BME280;58429;49.826;10.880;2023-08-01T00:28:11;97619;;;17.13;84.97
4326;BME280;58429;49.826;10.880;2023-08-01T00:29:11;97615;;;17.12;85
4326;BME280;58429;49.826;10.880;2023-08-01T00:30:11;97614;;;17.12;84.98
4326;BME280;58429;49.826;10.880;2023-08-01T00:31:11;97615;;;17.14;84.86
4326;BME280;58429;49.826;10.880;2023-08-01T00:32:11;97617;;;17.1;85.33
4326;BME280;58429;49.826;10.880;2023-08-01T00:33:11;97614;;;17.1;85.17
4326;BME280;58429;49.826;10.880;2023-08-01T00:34:11;97617;;;17.07;85.09
4326;BME280;58429;49.826;10.880;2023-08-01T00:35:11;97613;;;17.08;85.12
4326;BME280;58429;49.826;10.880;2023-08-01T00:36:11;97612;;;17.07;85.3
4326;BME280;58429;49.826;10.880;2023-08-01T00:37:12;97613;;;17.06;85.41
4326;BME280;58429;49.826;10.880;2023-08-01T00:38:11;97609;;;17.03;85.73
4326;BME280;58429;49.826;10.880;2023-08-01T00:39:11;97608;;;16.99;85.79
4326;BME280;58429;49.826;10.880;2023-08-01T00:40:11;97606;;;16.97;85.66
4326;BME280;58429;49.826;10.880;2023-08-01T00:41:11;97601;;;16.98;85.94
4326;BME280;58429;49.826;10.880;2023-08-01T00:42:11;97604;;;16.99;85.91
4326;BME280;58429;49.826;10.880;2023-08-01T00:43:11;97607;;;16.96;86.06
4326;BME280;58429;49.826;10.880;2023-08-01T00:44:11;97599;;;16.95;86.13
4326;BME280;58429;49.826;10.880;2023-08-01T00:45:11;97594;;;16.94;86.16
4326;BME280;58429;49.826;10.880;2023-08-01T00:46:11;97594;;;16.95;86.2
4326;BME280;58429;49.826;10.880;2023-08-01T00:47:11;97596;;;16.96;86.34
4326;BME280;58429;49.826;10.880;2023-08-01T00:48:11;97591;;;16.92;86.24
4326;BME280;58429;49.826;10.880;2023-08-01T00:49:11;97591;;;16.92;86.14
4326;BME280;58429;49.826;10.880;2023-08-01T00:50:11;97589;;;16.95;86.29
4326;BME280;58429;49.826;10.880;2023-08-01T00:51:11;97586;;;16.94;86.3
4326;BME280;58429;49.826;10.880;2023-08-01T00:52:11;97579;;;16.88;86.45
4326;BME280;58429;49.826;10.880;2023-08-01T00:53:11;97581;;;16.92;86.57
4326;BME280;58429;49.826;10.880;2023-08-01T00:54:11;97578;;;16.89;86.28
4326;BME280;58429;49.826;10.880;2023-08-01T00:55:11;97575;;;16.91;86.45
4326;BME280;58429;49.826;10.880;2023-08-01T00:56:11;97573;;;16.89;86.34
4326;BME280;58429;49.826;10.880;2023-08-01T00:57:11;97571;;;16.92;86.33
4326;BME280;58429;49.826;10.880;2023-08-01T00:58:11;97568;;;16.91;86.18
4326;BME280;58429;49.826;10.880;2023-08-01T00:59:11;97570;;;16.92;86.33
4326;BME280;58429;49.826;10.880;2023-08-01T01:00:11;97566;;;16.96;86.33
4326;BME280;58429;49.826;10.880;2023-08-01T01:01:11;97565;;;16.91;86.23
4326;BME280;58429;49.826;10.880;2023-08-01T01:02:11;97565;;;16.92;86.37
4326;BME280;58429;49.826;10.880;2023-08-01T01:03:11;97566;;;16.9;86.18
4326;BME280;58429;49.826;10.880;2023-08-01T01:04:11;97561;;;16.91;86.38
4326;BME280;58429;49.826;10.880;2023-08-01T01:05:11;97558;;;16.9;86.28
4326;BME280;58429;49.826;10.880;2023-08-01T01:06:11;97557;;;16.92;86.19
4326;BME280;58429;49.826;10.880;2023-08-01T01:07:11;97556;;;16.89;86.7
4326;BME280;58429;49.826;10.880;2023-08-01T01:08:11;97552;;;16.89;86.63
4326;BME280;58429;49.826;10.880;2023-08-01T01:09:15;97556;;;16.89;86.67
4326;BME280;58429;49.826;10.880;2023-08-01T01:10:11;97544;;;16.87;86.65
4326;BME280;58429;49.826;10.880;2023-08-01T01:11:11;97540;;;16.85;86.84
4326;BME280;58429;49.826;10.880;2023-08-01T01:12:11;97538;;;16.83;86.89
4326;BME280;58429;49.826;10.880;2023-08-01T01:13:11;97536;;;16.85;86.63
4326;BME280;58429;49.826;10.880;2023-08-01T01:14:11;97535;;;16.87;86.61
4326;BME280;58429;49.826;10.880;2023-08-01T01:15:11;97537;;;16.89;86.54
4326;BME280;58429;49.826;10.880;2023-08-01T01:16:11;97529;;;16.87;86.67
4326;BME280;58429;49.826;10.880;2023-08-01T01:17:11;97522;;;16.85;86.87
4326;BME280;58429;49.826;10.880;2023-08-01T01:18:11;97513;;;16.85;86.73
4326;BME280;58429;49.826;10.880;2023-08-01T01:19:11;97519;;;16.86;86.71
4326;BME280;58429;49.826;10.880;2023-08-01T01:20:11;97524;;;16.84;86.76
4326;BME280;58429;49.826;10.880;2023-08-01T01:21:11;97522;;;16.87;86.95
4326;BME280;58429;49.826;10.880;2023-08-01T01:22:11;97514;;;16.85;86.85
4326;BME280;58429;49.826;10.880;2023-08-01T01:23:11;97510;;;16.83;86.93
4326;BME280;58429;49.826;10.880;2023-08-01T01:24:11;97514;;;16.85;86.7
4326;BME280;58429;49.826;10.880;2023-08-01T01:25:11;97510;;;16.84;86.99
4326;BME280;58429;49.826;10.880;2023-08-01T01:26:11;97509;;;16.82;87.13
4326;BME280;58429;49.826;10.880;2023-08-01T01:27:11;97510;;;16.82;87.35
4326;BME280;58429;49.826;10.880;2023-08-01T01:28:11;97510;;;16.81;87.18
4326;BME280;58429;49.826;10.880;2023-08-01T01:29:11;97502;;;16.81;87.48
4326;BME280;58429;49.826;10.880;2023-08-01T01:30:11;97501;;;16.8;87.5
4326;BME280;58429;49.826;10.880;2023-08-01T01:31:11;97501;;;16.8;87.34
4326;BME280;58429;49.826;10.880;2023-08-01T01:32:11;97497;;;16.78;87.26
4326;BME280;58429;49.826;10.880;2023-08-01T01:33:11;97490;;;16.8;87.42
4326;BME280;58429;49.826;10.880;2023-08-01T01:34:11;97492;;;16.8;87.23
4326;BME280;58429;49.826;10.880;2023-08-01T01:35:11;97491;;;16.82;87.41
4326;BME280;58429;49.826;10.880;2023-08-01T01:36:11;97494;;;16.8;87.41
4326;BME280;58429;49.826;10.880;2023-08-01T01:37:11;97493;;;16.81;87.48
4326;BME280;58429;49.826;10.880;2023-08-01T01:38:11;97491;;;16.81;87.21
4326;BME280;58429;49.826;10.880;2023-08-01T01:39:11;97489;;;16.8;87.38
4326;BME280;58429;49.826;10.880;2023-08-01T01:40:11;97491;;;16.81;87.17
4326;BME280;58429;49.826;10.880;2023-08-01T01:41:11;97484;;;16.81;87.12
4326;BME280;58429;49.826;10.880;2023-08-01T01:42:11;97482;;;16.82;87.26
4326;BME280;58429;49.826;10.880;2023-08-01T01:43:11;97477;;;16.81;87.65
4326;BME280;58429;49.826;10.880;2023-08-01T01:44:11;97481;;;16.79;87.6
4326;BME280;58429;49.826;10.880;2023-08-01T01:45:11;97475;;;16.76;87.58
4326;BME280;58429;49.826;10.880;2023-08-01T01:46:11;97479;;;16.83;87.85
4326;BME280;58429;49.826;10.880;2023-08-01T01:47:11;97476;;;16.73;87.81
4326;BME280;58429;49.826;10.880;2023-08-01T01:48:11;97477;;;16.79;87.79
4326;BME280;58429;49.826;10.880;2023-08-01T01:49:11;97469;;;16.76;87.89
4326;BME280;58429;49.826;10.880;2023-08-01T01:50:11;97470;;;16.78;87.81
4326;BME280;58429;49.826;10.880;2023-08-01T01:51:11;97465;;;16.79;87.78
4326;BME280;58429;49.826;10.880;2023-08-01T01:52:11;97462;;;16.79;87.83
4326;BME280;58429;49.826;10.880;2023-08-01T01:53:11;97467;;;16.79;87.69
4326;BME280;58429;49.826;10.880;2023-08-01T01:54:11;97461;;;16.8;87.77
4326;BME280;58429;49.826;10.880;2023-08-01T01:55:11;97460;;;16.77;87.91
4326;BME280;58429;49.826;10.880;2023-08-01T01:56:11;97453;;;16.78;87.71
4326;BME280;58429;49.826;10.880;2023-08-01T01:57:11;97454;;;16.81;87.72
4326;BME280;58429;49.826;10.880;2023-08-01T01:58:11;97453;;;16.79;87.81
4326;BME280;58429;49.826;10.880;2023-08-01T01:59:11;97441;;;16.79;87.82
4326;BME280;58429;49.826;10.880;2023-08-01T02:00:11;97440;;;16.79;88.01
4326;BME280;58429;49.826;10.880;2023-08-01T02:01:11;97433;;;16.76;87.99
4326;BME280;58429;49.826;10.880;2023-08-01T02:02:11;97439;;;16.78;87.98
4326;BME280;58429;49.826;10.880;2023-08-01T02:03:11;97435;;;16.76;87.99
4326;BME280;58429;49.826;10.880;2023-08-01T02:04:11;97435;;;16.75;87.91
4326;BME280;58429;49.826;10.880;2023-08-01T02:05:11;97437;;;16.79;87.83
4326;BME280;58429;49.826;10.880;2023-08-01T02:06:11;97430;;;16.76;88.02
4326;BME280;58429;49.826;10.880;2023-08-01T02:07:11;97431;;;16.79;87.87
4326;BME280;58429;49.826;10.880;2023-08-01T02:08:11;97426;;;16.79;87.95
4326;BME280;58429;49.826;10.880;2023-08-01T02:09:11;97432;;;16.8;87.79
4326;BME280;58429;49.826;10.880;2023-08-01T02:10:11;97424;;;16.78;87.72
4326;BME280;58429;49.826;10.880;2023-08-01T02:11:11;97422;;;16.78;87.83
4326;BME280;58429;49.826;10.880;2023-08-01T02:12:11;97416;;;16.81;87.69
4326;BME280;58429;49.826;10.880;2023-08-01T02:13:11;97415;;;16.77;87.77
4326;BME280;58429;49.826;10.880;2023-08-01T02:14:11;97415;;;16.77;87.72
4326;BME280;58429;49.826;10.880;2023-08-01T02:15:11;97413;;;16.79;87.66
4326;BME280;58429;49.826;10.880;2023-08-01T02:16:11;97414;;;16.79;87.74
4326;BME280;58429;49.826;10.880;2023-08-01T02:17:11;97409;;;16.78;87.79
4326;BME280;58429;49.826;10.880;2023-08-01T02:18:11;97406;;;16.76;87.71
4326;BME280;58429;49.826;10.880;2023-08-01T02:19:11;97405;;;16.79;87.84
4326;BME280;58429;49.826;10.880;2023-08-01T02:20:11;97408;;;16.76;88.01
4326;BME280;58429;49.826;10.880;2023-08-01T02:21:11;97405;;;16.72;87.94
4326;BME280;58429;49.826;10.880;2023-08-01T02:22:11;97410;;;16.74;87.97
4326;BME280;58429;49.826;10.880;2023-08-01T02:23:11;97412;;;16.77;87.79
4326;BME280;58429;49.826;10.880;2023-08-01T02:24:11;97407;;;16.78;87.72
4326;BME280;58429;49.826;10.880;2023-08-01T02:25:11;97403;;;16.8;87.75
4326;BME280;58429;49.826;10.880;2023-08-01T02:26:11;97409;;;16.73;87.78
4326;BME280;58429;49.826;10.880;2023-08-01T02:27:11;97407;;;16.76;87.69
4326;BME280;58429;49.826;10.880;2023-08-01T02:28:11;97402;;;16.76;87.85
4326;BME280;58429;49.826;10.880;2023-08-01T02:29:11;97398;;;16.76;88.03
4326;BME280;58429;49.826;10.880;2023-08-01T02:30:11;97398;;;16.79;88.1
4326;BME280;58429;49.826;10.880;2023-08-01T02:31:11;97394;;;16.78;87.99
4326;BME280;58429;49.826;10.880;2023-08-01T02:32:11;97390;;;16.75;88.08
4326;BME280;58429;49.826;10.880;2023-08-01T02:33:11;97397;;;16.79;88.23
4326;BME280;58429;49.826;10.880;2023-08-01T02:34:11;97399;;;16.74;88.27
4326;BME280;58429;49.826;10.880;2023-08-01T02:35:11;97397;;;16.73;88.2
4326;BME280;58429;49.826;10.880;2023-08-01T02:36:11;97400;;;16.69;88.28
4326;BME280;58429;49.826;10.880;2023-08-01T02:37:11;97397;;;16.76;88.32
4326;BME280;58429;49.826;10.880;2023-08-01T02:38:11;97390;;;16.73;88.27
4326;BME280;58429;49.826;10.880;2023-08-01T02:39:11;97392;;;16.7;88.17
4326;BME280;58429;49.826;10.880;2023-08-01T02:40:11;97388;;;16.76;88.31
4326;BME280;58429;49.826;10.880;2023-08-01T02:41:11;97388;;;16.75;88.31
4326;BME280;58429;49.826;10.880;2023-08-01T02:42:11;97386;;;16.75;88.29
4326;BME280;58429;49.826;10.880;2023-08-01T02:43:11;97390;;;16.72;88.19
4326;BME280;58429;49.826;10.880;2023-08-01T02:44:11;97384;;;16.78;88.09
4326;BME280;58429;49.826;10.880;2023-08-01T02:45:11;97389;;;16.75;88.06
4326;BME280;58429;49.826;10.880;2023-08-01T02:46:11;97380;;;16.73;88.15
4326;BME280;58429;49.826;10.880;2023-08-01T02:47:11;97384;;;16.75;88.01
4326;BME280;58429;49.826;10.880;2023-08-01T02:48:11;97384;;;16.72;87.96
4326;BME280;58429;49.826;10.880;2023-08-01T02:49:11;97391;;;16.76;87.93
4326;BME280;58429;49.826;10.880;2023-08-01T02:50:11;97392;;;16.78;87.97
4326;BME280;58429;49.826;10.880;2023-08-01T02:51:11;97393;;;16.72;88.09
4326;BME280;58429;49.826;10.880;2023-08-01T02:52:11;97399;;;16.79;88.15
4326;BME280;58429;49.826;10.880;2023-08-01T02:53:11;97391;;;16.7;88.02
4326;BME280;58429;49.826;10.880;2023-08-01T02:54:11;97397;;;16.73;88.11
4326;BME280;58429;49.826;10.880;2023-08-01T02:55:11;97389;;;16.76;88.08
4326;BME280;58429;49.826;10.880;2023-08-01T02:56:11;97383;;;16.72;88.24
4326;BME280;58429;49.826;10.880;2023-08-01T02:57:11;97378;;;16.73;88.16
4326;BME280;58429;49.826;10.880;2023-08-01T02:58:11;97370;;;16.74;88.18
4326;BME280;58429;49.826;10.880;2023-08-01T02:59:11;97374;;;16.75;88.21
4326;BME280;58429;49.826;10.880;2023-08-01T03:00:11;97371;;;16.75;88.16
4326;BME280;58429;49.826;10.880;2023-08-01T03:01:11;97371;;;16.74;88.23
4326;BME280;58429;49.826;10.880;2023-08-01T03:02:11;97370;;;16.74;88.16
4326;BME280;58429;49.826;10.880;2023-08-01T03:03:11;97370;;;16.73;88.02
4326;BME280;58429;49.826;10.880;2023-08-01T03:04:11;97376;;;16.73;88.12
4326;BME280;58429;49.826;10.880;2023-08-01T03:05:11;97375;;;16.74;88.13
4326;BME280;58429;49.826;10.880;2023-08-01T03:06:11;97375;;;16.75;88.09
4326;BME280;58429;49.826;10.880;2023-08-01T03:07:11;97372;;;16.73;88.25
4326;BME280;58429;49.826;10.880;2023-08-01T03:08:11;97368;;;16.75;88.17
4326;BME280;58429;49.826;10.880;2023-08-01T03:09:11;97362;;;16.71;88.08
4326;BME280;58429;49.826;10.880;2023-08-01T03:10:11;97376;;;16.72;88.16
4326;BME280;58429;49.826;10.880;2023-08-01T03:11:11;97367;;;16.72;88.16
4326;BME280;58429;49.826;10.880;2023-08-01T03:12:11;97370;;;16.73;88.14
4326;BME280;58429;49.826;10.880;2023-08-01T03:13:11;97362;;;16.75;88.14
4326;BME280;58429;49.826;10.880;2023-08-01T03:14:11;97360;;;16.69;88.16
4326;BME280;58429;49.826;10.880;2023-08-01T03:15:11;97366;;;16.71;88.13
4326;BME280;58429;49.826;10.880;2023-08-01T03:16:11;97372;;;16.73;88.09
4326;BME280;58429;49.826;10.880;2023-08-01T03:17:11;97368;;;16.73;88.13
4326;BME280;58429;49.826;10.880;2023-08-01T03:18:11;97360;;;16.73;88.1
4326;BME280;58429;49.826;10.880;2023-08-01T03:19:11;97358;;;16.75;88.08
4326;BME280;58429;49.826;10.880;2023-08-01T03:20:11;97353;;;16.78;88.01
4326;BME280;58429;49.826;10.880;2023-08-01T03:21:11;97357;;;16.76;88.05
4326;BME280;58429;49.826;10.880;2023-08-01T03:22:11;97348;;;16.79;88.17
4326;BME280;58429;49.826;10.880;2023-08-01T03:23:11;97342;;;16.7;88.16
4326;BME280;58429;49.826;10.880;2023-08-01T03:24:11;97347;;;16.72;88.09
4326;BME280;58429;49.826;10.880;2023-08-01T03:25:11;97343;;;16.72;88.12
4326;BME280;58429;49.826;10.880;2023-08-01T03:26:11;97344;;;16.71;88.16
4326;BME280;58429;49.826;10.880;2023-08-01T03:27:11;97336;;;16.71;88.2
4326;BME280;58429;49.826;10.880;2023-08-01T03:28:11;97341;;;16.71;88.11
4326;BME280;58429;49.826;10.880;2023-08-01T03:29:11;97343;;;16.7;88.27
4326;BME280;58429;49.826;10.880;2023-08-01T03:30:11;97342;;;16.71;88.39
4326;BME280;58429;49.826;10.880;2023-08-01T03:31:11;97342;;;16.73;88.38
4326;BME280;58429;49.826;10.880;2023-08-01T03:32:11;97343;;;16.68;88.32
4326;BME280;58429;49.826;10.880;2023-08-01T03:33:11;97331;;;16.67;88.27
4326;BME280;58429;49.826;10.880;2023-08-01T03:34:11;97335;;;16.67;88.32
4326;BME280;58429;49.826;10.880;2023-08-01T03:35:11;97333;;;16.72;88.34
4326;BME280;58429;49.826;10.880;2023-08-01T03:36:11;97326;;;16.69;88.33
4326;BME280;58429;49.826;10.880;2023-08-01T03:37:11;97331;;;16.69;88.29
4326;BME280;58429;49.826;10.880;2023-08-01T03:38:11;97320;;;16.68;88.17
4326;BME280;58429;49.826;10.880;2023-08-01T03:39:11;97327;;;16.7;88.27
4326;BME280;58429;49.826;10.880;2023-08-01T03:40:11;97321;;;16.69;88.27
4326;BME280;58429;49.826;10.880;2023-08-01T03:41:11;97320;;;16.71;88.24
4326;BME280;58429;49.826;10.880;2023-08-01T03:42:11;97325;;;16.74;88.2
4326;BME280;58429;49.826;10.880;2023-08-01T03:43:11;97319;;;16.68;88.13
4326;BME280;58429;49.826;10.880;2023-08-01T03:44:11;97314;;;16.71;88.08
4326;BME280;58429;49.826;10.880;2023-08-01T03:45:11;97322;;;16.72;88.17
4326;BME280;58429;49.826;10.880;2023-08-01T03:46:11;97315;;;16.73;88.14
4326;BME280;58429;49.826;10.880;2023-08-01T03:47:11;97309;;;16.73;88.15
4326;BME280;58429;49.826;10.880;2023-08-01T03:48:11;97309;;;16.74;88.15
4326;BME280;58429;49.826;10.880;2023-08-01T03:49:11;97305;;;16.73;88.15
4326;BME280;58429;49.826;10.880;2023-08-01T03:50:11;97302;;;16.73;88.21
4326;BME280;58429;49.826;10.880;2023-08-01T03:51:11;97301;;;16.69;88.21
4326;BME280;58429;49.826;10.880;2023-08-01T03:52:11;97298;;;16.68;88.18
4326;BME280;58429;49.826;10.880;2023-08-01T03:53:11;97302;;;16.7;88.16
4326;BME280;58429;49.826;10.880;2023-08-01T03:54:11;97289;;;16.7;88.2
4326;BME280;58429;49.826;10.880;2023-08-01T03:55:11;97293;;;16.67;88.36
4326;BME280;58429;49.826;10.880;2023-08-01T03:56:11;97295;;;16.67;88.32
4326;BME280;58429;49.826;10.880;2023-08-01T03:57:11;97296;;;16.66;88.33
4326;BME280;58429;49.826;10.880;2023-08-01T03:58:11;97291;;;16.68;88.43
4326;BME280;58429;49.826;10.880;2023-08-01T03:59:12;97296;;;16.67;88.52
4326;BME280;58429;49.826;10.880;2023-08-01T04:00:11;97292;;;16.67;88.55
4326;BME280;58429;49.826;10.880;2023-08-01T04:01:11;97290;;;16.67;88.56
4326;BME280;58429;49.826;10.880;2023-08-01T04:02:11;97284;;;16.68;88.65
4326;BME280;58429;49.826;10.880;2023-08-01T04:03:11;97283;;;16.69;88.63
4326;BME280;58429;49.826;10.880;2023-08-01T04:04:11;97284;;;16.67;88.56
4326;BME280;58429;49.826;10.880;2023-08-01T04:05:11;97277;;;16.67;88.58
4326;BME280;58429;49.826;10.880;2023-08-01T04:06:11;97276;;;16.66;88.59
4326;BME280;58429;49.826;10.880;2023-08-01T04:07:11;97282;;;16.64;88.59
4326;BME280;58429;49.826;10.880;2023-08-01T04:08:11;97278;;;16.69;88.52
4326;BME280;58429;49.826;10.880;2023-08-01T04:09:11;97285;;;16.69;88.52
4326;BME280;58429;49.826;10.880;2023-08-01T04:10:11;97284;;;16.67;88.47
4326;BME280;58429;49.826;10.880;2023-08-01T04:11:11;97279;;;16.69;88.52
4326;BME280;58429;49.826;10.880;2023-08-01T04:12:11;97279;;;16.7;88.5
4326;BME280;58429;49.826;10.880;2023-08-01T04:13:11;97278;;;16.68;88.51
4326;BME280;58429;49.826;10.880;2023-08-01T04:14:11;97277;;;16.7;88.57
4326;BME280;58429;49.826;10.880;2023-08-01T04:15:11;97273;;;16.73;88.62
4326;BME280;58429;49.826;10.880;2023-08-01T04:16:11;97273;;;16.68;88.7
4326;BME280;58429;49.826;10.880;2023-08-01T04:17:11;97265;;;16.72;88.67
4326;BME280;58429;49.826;10.880;2023-08-01T04:18:11;97268;;;16.74;88.69
4326;BME280;58429;49.826;10.880;2023-08-01T04:19:11;97272;;;16.69;88.58
4326;BME280;58429;49.826;10.880;2023-08-01T04:20:11;97274;;;16.7;88.61
4326;BME280;58429;49.826;10.880;2023-08-01T04:21:12;97278;;;16.71;88.62
4326;BME280;58429;49.826;10.880;2023-08-01T04:22:11;97273;;;16.69;88.59
4326;BME280;58429;49.826;10.880;2023-08-01T04:23:11;97268;;;16.71;88.61
4326;BME280;58429;49.826;10.880;2023-08-01T04:24:11;97261;;;16.69;88.6
4326;BME280;58429;49.826;10.880;2023-08-01T04:25:11;97259;;;16.7;88.52
4326;BME280;58429;49.826;10.880;2023-08-01T04:26:11;97262;;;16.71;88.56
4326;BME280;58429;49.826;10.880;2023-08-01T04:27:11;97273;;;16.71;88.56
4326;BME280;58429;49.826;10.880;2023-08-01T04:28:11;97273;;;16.74;88.64
4326;BME280;58429;49.826;10.880;2023-08-01T04:29:11;97272;;;16.71;88.61
4326;BME280;58429;49.826;10.880;2023-08-01T04:30:11;97273;;;16.69;88.57
4326;BME280;58429;49.826;10.880;2023-08-01T04:31:11;97265;;;16.71;88.56
4326;BME280;58429;49.826;10.880;2023-08-01T04:32:11;97265;;;16.7;88.56
4326;BME280;58429;49.826;10.880;2023-08-01T04:33:11;97261;;;16.73;88.68
4326;BME280;58429;49.826;10.880;2023-08-01T04:34:11;97273;;;16.71;88.57
4326;BME280;58429;49.826;10.880;2023-08-01T04:35:11;97274;;;16.73;88.57
4326;BME280;58429;49.826;10.880;2023-08-01T04:36:11;97268;;;16.74;88.7
4326;BME280;58429;49.826;10.880;2023-08-01T04:37:11;97269;;;16.75;88.59
4326;BME280;58429;49.826;10.880;2023-08-01T04:38:11;97259;;;16.73;88.57
4326;BME280;58429;49.826;10.880;2023-08-01T04:39:11;97261;;;16.77;88.51
4326;BME280;58429;49.826;10.880;2023-08-01T04:40:11;97268;;;16.76;88.49
4326;BME280;58429;49.826;10.880;2023-08-01T04:41:11;97265;;;16.76;88.48
4326;BME280;58429;49.826;10.880;2023-08-01T04:42:11;97263;;;16.75;88.43
4326;BME280;58429;49.826;10.880;2023-08-01T04:43:11;97264;;;16.81;88.41
4326;BME280;58429;49.826;10.880;2023-08-01T04:44:11;97261;;;16.81;88.38
4326;BME280;58429;49.826;10.880;2023-08-01T04:45:11;97264;;;16.81;88.36
4326;BME280;58429;49.826;10.880;2023-08-01T04:46:11;97265;;;16.8;88.33
4326;BME280;58429;49.826;10.880;2023-08-01T04:47:13;97252;;;16.83;88.37
4326;BME280;58429;49.826;10.880;2023-08-01T04:48:11;97260;;;16.82;88.38
4326;BME280;58429;49.826;10.880;2023-08-01T04:49:11;97261;;;16.81;88.35
4326;BME280;58429;49.826;10.880;2023-08-01T04:50:11;97256;;;16.8;88.31
4326;BME280;58429;49.826;10.880;2023-08-01T04:51:11;97255;;;16.81;88.32
4326;BME280;58429;49.826;10.880;2023-08-01T04:52:11;97259;;;16.84;88.28
4326;BME280;58429;49.826;10.880;2023-08-01T04:53:11;97259;;;16.81;88.27
4326;BME280;58429;49.826;10.880;2023-08-01T04:54:11;97264;;;16.82;88.25
4326;BME280;58429;49.826;10.880;2023-08-01T04:55:16;97262;;;16.83;88.18
4326;BME280;58429;49.826;10.880;2023-08-01T04:56:11;97260;;;16.86;88.23
4326;BME280;58429;49.826;10.880;2023-08-01T04:57:11;97260;;;16.85;88.3
4326;BME280;58429;49.826;10.880;2023-08-01T04:58:11;97261;;;16.86;88.32
4326;BME280;58429;49.826;10.880;2023-08-01T04:59:11;97264;;;16.86;88.29
4326;BME280;58429;49.826;10.880;2023-08-01T05:00:12;97260;;;16.87;88.33
4326;BME280;58429;49.826;10.880;2023-08-01T05:01:11;97267;;;16.86;88.31
4326;BME280;58429;49.826;10.880;2023-08-01T05:02:11;97267;;;16.87;88.43
4326;BME280;58429;49.826;10.880;2023-08-01T05:03:11;97274;;;16.86;88.34
4326;BME280;58429;49.826;10.880;2023-08-01T05:04:11;97273;;;16.85;88.37
4326;BME280;58429;49.826;10.880;2023-08-01T05:05:11;97269;;;16.87;88.41
4326;BME280;58429;49.826;10.880;2023-08-01T05:06:11;97275;;;16.87;88.35
4326;BME280;58429;49.826;10.880;2023-08-01T05:07:11;97281;;;16.86;88.31
4326;BME280;58429;49.826;10.880;2023-08-01T05:08:11;97283;;;16.88;88.28
4326;BME280;58429;49.826;10.880;2023-08-01T05:09:11;97278;;;16.87;88.35
4326;BME280;58429;49.826;10.880;2023-08-01T05:10:11;97283;;;16.85;88.45
4326;BME280;58429;49.826;10.880;2023-08-01T05:11:11;97277;;;16.89;88.44
4326;BME280;58429;49.826;10.880;2023-08-01T05:12:11;97281;;;16.89;88.46
4326;BME280;58429;49.826;10.880;2023-08-01T05:13:11;97278;;;16.9;88.42
4326;BME280;58429;49.826;10.880;2023-08-01T05:14:11;97277;;;16.88;88.45
4326;BME280;58429;49.826;10.880;2023-08-01T05:15:11;97281;;;16.9;88.41
4326;BME280;58429;49.826;10.880;2023-08-01T05:16:11;97280;;;16.88;88.42
4326;BME280;58429;49.826;10.880;2023-08-01T05:17:11;97284;;;16.9;88.47
4326;BME280;58429;49.826;10.880;2023-08-01T05:18:11;97280;;;16.86;88.43
4326;BME280;58429;49.826;10.880;2023-08-01T05:19:11;97284;;;16.89;88.38
4326;BME280;58429;49.826;10.880;2023-08-01T05:20:11;97285;;;16.89;88.34
4326;BME280;58429;49.826;10.880;2023-08-01T05:21:11;97282;;;16.88;88.31
4326;BME280;58429;49.826;10.880;2023-08-01T05:22:11;97290;;;16.91;88.26
4326;BME280;58429;49.826;10.880;2023-08-01T05:23:11;97288;;;16.92;88.32
4326;BME280;58429;49.826;10.880;2023-08-01T05:24:11;97289;;;16.92;88.29
4326;BME280;58429;49.826;10.880;2023-08-01T05:25:11;97288;;;16.92;88.16
4326;BME280;58429;49.826;10.880;2023-08-01T05:26:11;97287;;;16.95;88.03
4326;BME280;58429;49.826;10.880;2023-08-01T05:27:11;97289;;;16.96;88.18
4326;BME280;58429;49.826;10.880;2023-08-01T05:28:11;97284;;;16.94;88.08
4326;BME280;58429;49.826;10.880;2023-08-01T05:29:11;97286;;;16.97;88.14
4326;BME280;58429;49.826;10.880;2023-08-01T05:30:11;97278;;;16.97;88.15
4326;BME280;58429;49.826;10.880;2023-08-01T05:31:11;97277;;;16.97;88.21